createdAt,value
2018-11-21T00:00:47.470Z,0.40
2018-11-21T00:03:16.661Z,0.40
2018-11-21T00:05:45.856Z,0.40
2018-11-21T00:08:15.037Z,0.50
2018-11-21T00:10:44.180Z,0.40
2018-11-21T00:13:13.368Z,0.50
2018-11-21T00:15:42.601Z,0.50
2018-11-21T00:18:11.850Z,0.50
2018-11-21T00:20:41.029Z,0.50
2018-11-21T00:23:10.629Z,0.50
2018-11-21T00:25:40.181Z,0.50
2018-11-21T00:28:09.331Z,0.50
2018-11-21T00:30:38.640Z,0.50
2018-11-21T00:33:07.810Z,0.50
2018-11-21T00:35:36.982Z,0.50
2018-11-21T00:38:06.137Z,0.50
2018-11-21T00:40:35.767Z,0.50
2018-11-21T00:43:05.210Z,0.40
2018-11-21T00:45:34.448Z,0.40
2018-11-21T00:48:03.731Z,0.40
2018-11-21T00:50:32.917Z,0.40
2018-11-21T00:53:02.090Z,0.40
2018-11-21T00:55:31.364Z,0.50
2018-11-21T00:58:00.544Z,0.50
2018-11-21T01:00:29.787Z,0.50
2018-11-21T01:02:59.354Z,0.50
2018-11-21T01:05:28.509Z,0.50
2018-11-21T01:07:57.689Z,0.50
2018-11-21T01:10:26.904Z,0.50
2018-11-21T01:12:56.114Z,0.50
2018-11-21T01:15:25.251Z,0.50
2018-11-21T01:17:54.469Z,0.50
2018-11-21T01:20:23.614Z,0.50
2018-11-21T01:22:52.828Z,0.50
2018-11-21T01:25:22.112Z,0.50
2018-11-21T01:27:51.264Z,0.50
2018-11-21T01:30:20.515Z,0.50
2018-11-21T01:32:49.687Z,0.50
2018-11-21T01:35:18.846Z,0.50
2018-11-21T01:37:48.424Z,0.50
2018-11-21T01:40:17.588Z,0.50
2018-11-21T01:42:46.786Z,0.50
2018-11-21T01:45:16.354Z,0.50
2018-11-21T01:47:45.514Z,0.40
2018-11-21T01:50:14.712Z,0.40
2018-11-21T01:52:43.892Z,0.40
2018-11-21T01:55:13.055Z,0.50
2018-11-21T01:57:42.264Z,0.40
2018-11-21T02:00:12.229Z,0.50
2018-11-21T02:02:41.392Z,0.40
2018-11-21T02:05:10.583Z,0.50
2018-11-21T02:07:39.741Z,0.40
2018-11-21T02:10:08.956Z,0.40
2018-11-21T02:12:38.106Z,0.40
2018-11-21T02:15:07.353Z,0.40
2018-11-21T02:17:36.565Z,0.40
2018-11-21T02:20:07.430Z,0.40
2018-11-21T02:22:36.658Z,0.40
2018-11-21T02:25:07.069Z,0.40
2018-11-21T02:27:36.291Z,0.40
2018-11-21T02:30:06.570Z,0.40
2018-11-21T02:32:35.719Z,0.30
2018-11-21T02:35:05.888Z,0.30
2018-11-21T02:37:35.216Z,0.30
2018-11-21T02:40:04.479Z,0.30
2018-11-21T02:42:33.656Z,0.30
2018-11-21T02:45:02.846Z,0.30
2018-11-21T02:47:32.107Z,0.30
2018-11-21T02:50:01.292Z,0.30
2018-11-21T02:52:30.539Z,0.30
2018-11-21T02:55:00.116Z,0.30
2018-11-21T02:57:30.510Z,0.30
2018-11-21T03:00:08.224Z,0.30
2018-11-21T03:02:37.389Z,0.30
2018-11-21T03:05:06.753Z,0.30
2018-11-21T03:07:35.953Z,0.30
2018-11-21T03:10:06.435Z,0.30
2018-11-21T03:12:36.215Z,0.30
2018-11-21T03:15:05.937Z,0.30
2018-11-21T03:17:35.409Z,0.30
2018-11-21T03:22:33.696Z,0.30
2018-11-21T03:25:02.881Z,0.30
2018-11-21T03:27:32.243Z,0.20
2018-11-21T03:30:01.541Z,0.20
2018-11-21T03:32:30.689Z,0.20
2018-11-21T03:34:59.838Z,0.20
2018-11-21T03:37:29.104Z,0.20
2018-11-21T03:39:59.056Z,0.20
2018-11-21T03:42:28.206Z,0.10
2018-11-21T03:44:57.697Z,0.20
2018-11-21T03:47:26.961Z,0.20
2018-11-21T03:49:56.113Z,0.20
2018-11-21T03:52:25.319Z,0.20
2018-11-21T03:54:54.482Z,0.10
2018-11-21T03:57:23.677Z,0.10
2018-11-21T03:59:52.849Z,0.10
2018-11-21T04:02:22.121Z,0.10
2018-11-21T04:04:51.277Z,0.20
2018-11-21T04:07:21.224Z,0.10
2018-11-21T04:09:50.372Z,0.10
2018-11-21T04:12:19.533Z,0.10
2018-11-21T04:14:48.738Z,0.10
2018-11-21T04:17:17.940Z,0.10
2018-11-21T04:19:47.136Z,0.10
2018-11-21T04:22:16.322Z,0.10
2018-11-21T04:24:45.547Z,0.10
2018-11-21T04:27:14.755Z,0.10
2018-11-21T04:29:44.355Z,0.00
2018-11-21T04:32:13.528Z,0.10
2018-11-21T04:34:42.689Z,0.10
2018-11-21T04:37:11.872Z,0.10
2018-11-21T04:39:41.112Z,0.00
2018-11-21T04:42:10.344Z,0.00
2018-11-21T04:44:39.920Z,0.00
2018-11-21T04:47:09.109Z,0.00
2018-11-21T04:49:38.252Z,0.00
2018-11-21T04:52:07.414Z,0.00
2018-11-21T04:54:36.566Z,0.00
2018-11-21T04:57:06.056Z,0.00
2018-11-21T04:59:35.245Z,0.00
2018-11-21T05:02:04.501Z,-0.10
2018-11-21T05:04:33.745Z,0.00
2018-11-21T05:07:02.954Z,-0.10
2018-11-21T05:09:32.148Z,-0.10
2018-11-21T05:12:01.315Z,0.00
2018-11-21T05:14:30.897Z,0.00
2018-11-21T05:17:00.071Z,-0.10
2018-11-21T05:19:29.364Z,-0.10
2018-11-21T05:21:58.575Z,-0.10
2018-11-21T05:24:27.748Z,-0.10
2018-11-21T05:26:56.909Z,-0.10
2018-11-21T05:29:26.069Z,-0.10
2018-11-21T05:31:55.737Z,-0.10
2018-11-21T05:34:24.907Z,-0.10
2018-11-21T05:39:22.833Z,-0.10
2018-11-21T05:41:52.036Z,-0.10
2018-11-21T05:44:21.277Z,-0.10
2018-11-21T05:46:53.688Z,-0.10
2018-11-21T05:49:19.756Z,-0.10
2018-11-21T05:51:48.953Z,-0.10
2018-11-21T05:54:18.145Z,-0.10
2018-11-21T05:56:47.356Z,-0.10
2018-11-21T05:59:16.685Z,-0.10
2018-11-21T06:01:46.202Z,-0.10
2018-11-21T06:04:15.420Z,-0.10
2018-11-21T06:06:44.583Z,-0.10
2018-11-21T06:09:13.939Z,-0.10
2018-11-21T06:11:43.263Z,-0.10
2018-11-21T06:14:12.492Z,-0.10
2018-11-21T06:16:41.642Z,-0.10
2018-11-21T06:19:10.839Z,-0.10
2018-11-21T06:21:40.097Z,0.00
2018-11-21T06:26:38.340Z,0.00
2018-11-21T06:29:07.528Z,0.00
2018-11-21T06:31:36.711Z,0.00
2018-11-21T06:34:05.937Z,0.00
2018-11-21T06:36:35.121Z,0.00
2018-11-21T06:39:05.828Z,0.00
2018-11-21T06:41:35.025Z,0.00
2018-11-21T06:44:04.209Z,0.00
2018-11-21T06:46:33.387Z,0.00
2018-11-21T06:49:02.576Z,0.00
2018-11-21T06:51:35.194Z,0.10
2018-11-21T06:54:00.910Z,0.10
2018-11-21T06:56:30.369Z,0.10
2018-11-21T06:58:59.581Z,0.10
2018-11-21T07:01:28.768Z,0.10
2018-11-21T07:03:57.949Z,0.10
2018-11-21T07:06:27.186Z,0.10
2018-11-21T07:08:56.358Z,0.10
2018-11-21T07:11:25.571Z,0.10
2018-11-21T07:13:54.949Z,0.10
2018-11-21T07:16:24.359Z,0.20
2018-11-21T07:18:53.591Z,0.20
2018-11-21T07:21:22.753Z,0.20
2018-11-21T07:23:51.930Z,0.30
2018-11-21T07:26:21.140Z,0.30
2018-11-21T07:28:50.312Z,0.30
2018-11-21T07:31:19.477Z,0.30
2018-11-21T07:33:48.675Z,0.30
2018-11-21T07:36:17.825Z,0.40
2018-11-21T07:38:47.033Z,0.40
2018-11-21T07:41:16.217Z,0.40
2018-11-21T07:43:45.398Z,0.40
2018-11-21T07:46:14.841Z,0.50
2018-11-21T07:48:44.003Z,0.50
2018-11-21T07:51:13.168Z,0.50
2018-11-21T07:53:42.417Z,0.50
2018-11-21T07:57:03.064Z,0.50
2018-11-21T07:59:32.638Z,0.50
2018-11-21T08:02:08.284Z,0.50
2018-11-21T08:04:53.183Z,0.40
2018-11-21T08:07:44.513Z,0.40
2018-11-21T08:10:31.384Z,0.40
2018-11-21T08:13:18.878Z,0.30
2018-11-21T08:16:05.561Z,0.40
2018-11-21T08:18:52.660Z,0.30
2018-11-21T08:21:39.739Z,0.30
2018-11-21T08:24:20.464Z,0.30
2018-11-21T08:27:07.701Z,0.40
2018-11-21T08:29:36.890Z,0.40
2018-11-21T08:32:06.094Z,0.40
2018-11-21T08:34:35.280Z,0.40
2018-11-21T08:37:04.461Z,0.50
2018-11-21T08:39:33.653Z,0.50
2018-11-21T08:42:02.815Z,0.50
2018-11-21T08:44:31.985Z,0.60
2018-11-21T08:47:01.162Z,0.60
2018-11-21T08:51:59.134Z,0.60
2018-11-21T08:54:28.296Z,0.60
2018-11-21T08:56:57.463Z,0.60
2018-11-21T08:59:26.637Z,0.60
2018-11-21T09:01:55.798Z,0.60
2018-11-21T09:04:25.019Z,0.50
2018-11-21T09:06:54.191Z,0.50
2018-11-21T09:09:23.398Z,0.60
2018-11-21T09:11:52.598Z,0.50
2018-11-21T09:14:21.764Z,0.50
2018-11-21T09:16:50.944Z,0.50
2018-11-21T09:19:20.127Z,0.60
2018-11-21T09:21:49.412Z,0.60
2018-11-21T09:24:18.613Z,0.60
2018-11-21T09:26:47.775Z,0.60
2018-11-21T09:29:16.965Z,0.60
2018-11-21T09:31:46.185Z,0.60
2018-11-21T09:34:15.382Z,0.50
2018-11-21T09:36:44.550Z,0.50
2018-11-21T09:41:42.943Z,0.60
2018-11-21T09:44:12.137Z,0.60
2018-11-21T09:46:41.294Z,0.50
2018-11-21T09:49:10.523Z,0.50
2018-11-21T09:51:39.725Z,0.60
2018-11-21T09:54:08.924Z,0.60
2018-11-21T09:56:38.116Z,0.60
2018-11-21T09:59:07.318Z,0.60
2018-11-21T10:02:13.398Z,0.60
2018-11-21T10:04:42.591Z,0.60
2018-11-21T10:07:12.152Z,0.60
2018-11-21T10:09:43.781Z,0.60
2018-11-21T10:12:12.973Z,0.60
2018-11-21T10:14:42.165Z,0.60
2018-11-21T10:17:11.413Z,0.60
2018-11-21T10:19:40.558Z,0.70
2018-11-21T10:22:09.723Z,0.90
2018-11-21T10:24:38.977Z,0.70
2018-11-21T10:27:08.164Z,0.80
2018-11-21T10:29:37.317Z,0.70
2018-11-21T10:32:06.488Z,0.80
2018-11-21T10:37:04.425Z,0.70
2018-11-21T10:39:33.612Z,0.70
2018-11-21T10:42:02.779Z,0.70
2018-11-21T10:47:00.719Z,0.80
2018-11-21T10:49:29.892Z,0.80
2018-11-21T10:51:59.088Z,0.80
2018-11-21T10:54:28.285Z,0.80
2018-11-21T10:56:57.987Z,0.80
2018-11-21T10:59:27.185Z,0.80
2018-11-21T11:02:14.256Z,0.70
2018-11-21T11:05:01.358Z,0.70
2018-11-21T11:07:49.259Z,0.70
2018-11-21T11:10:37.570Z,0.70
2018-11-21T11:13:25.653Z,0.80
2018-11-21T11:16:16.821Z,0.80
2018-11-21T11:19:03.828Z,0.70
2018-11-21T11:21:52.124Z,0.70
2018-11-21T11:24:49.181Z,0.70
2018-11-21T11:27:29.962Z,0.70
2018-11-21T11:30:33.168Z,0.70
2018-11-21T11:33:30.555Z,0.70
2018-11-21T11:36:21.348Z,0.70
2018-11-21T11:39:08.488Z,0.70
2018-11-21T11:41:57.913Z,0.70
2018-11-21T11:44:44.888Z,0.70
2018-11-21T11:47:33.166Z,0.70
2018-11-21T11:50:20.258Z,0.70
2018-11-21T11:52:57.719Z,0.70
2018-11-21T11:55:54.954Z,0.60
2018-11-21T11:58:41.759Z,0.60
2018-11-21T12:01:28.717Z,0.70
2018-11-21T12:04:15.896Z,0.70
2018-11-21T12:07:04.222Z,0.70
2018-11-21T12:09:50.961Z,0.70
2018-11-21T12:12:40.114Z,0.80
2018-11-21T12:15:41.722Z,0.80
2018-11-21T12:18:28.689Z,0.80
2018-11-21T12:24:18.588Z,0.90
2018-11-21T12:27:15.891Z,1.00
2018-11-21T12:30:03.349Z,1.10
2018-11-21T12:32:50.502Z,1.20
2018-11-21T12:35:44.820Z,1.20
2018-11-21T12:38:35.818Z,1.20
2018-11-21T12:41:22.920Z,1.20
2018-11-21T12:44:26.419Z,1.10
2018-11-21T12:47:13.901Z,1.00
2018-11-21T12:50:00.993Z,0.90
2018-11-21T12:52:49.283Z,1.00
2018-11-21T12:58:25.698Z,1.00
2018-11-21T13:01:19.673Z,1.00
2018-11-21T13:04:06.805Z,0.90
2018-11-21T13:06:53.926Z,0.90
2018-11-21T13:09:42.197Z,0.80
2018-11-21T13:12:29.285Z,0.80
2018-11-21T13:15:16.206Z,0.80
2018-11-21T13:18:14.065Z,0.80
2018-11-21T13:21:02.341Z,0.80
2018-11-21T13:23:59.309Z,0.70
2018-11-21T13:26:44.334Z,0.70
2018-11-21T13:29:26.273Z,0.70
2018-11-21T13:32:14.548Z,0.70
2018-11-21T13:34:52.908Z,0.60
2018-11-21T13:37:39.775Z,0.60
